sensor_id;sensor_type;location;lat;lon;timestamp;P1;durP1;ratioP1;P2;durP2;ratioP2
19998;SDS011;10160;50.926;4.374;2023-05-18T00:00:43;12.17;;;4.30;;
19998;SDS011;10160;50.926;4.374;2023-05-18T00:03:09;16.70;;;5.50;;
19998;SDS011;10160;50.926;4.374;2023-05-18T00:05:35;14.70;;;4.77;;
19998;SDS011;10160;50.926;4.374;2023-05-18T00:08:01;15.30;;;4.70;;
19998;SDS011;10160;50.926;4.374;2023-05-18T00:10:27;13.47;;;4.83;;
19998;SDS011;10160;50.926;4.374;2023-05-18T00:12:53;12.90;;;4.53;;
19998;SDS011;10160;50.926;4.374;2023-05-18T00:15:19;18.03;;;5.20;;
19998;SDS011;10160;50.926;4.374;2023-05-18T00:17:45;14.70;;;4.73;;
19998;SDS011;10160;50.926;4.374;2023-05-18T00:20:10;13.43;;;5.10;;
19998;SDS011;10160;50.926;4.374;2023-05-18T00:22:36;19.87;;;5.00;;
19998;SDS011;10160;50.926;4.374;2023-05-18T00:25:06;16.83;;;4.97;;
19998;SDS011;10160;50.926;4.374;2023-05-18T00:27:32;15.23;;;5.20;;
19998;SDS011;10160;50.926;4.374;2023-05-18T00:29:58;20.53;;;4.40;;
19998;SDS011;10160;50.926;4.374;2023-05-18T00:32:24;14.37;;;4.77;;
19998;SDS011;10160;50.926;4.374;2023-05-18T00:34:49;16.33;;;4.87;;
19998;SDS011;10160;50.926;4.374;2023-05-18T00:37:15;15.50;;;4.80;;
19998;SDS011;10160;50.926;4.374;2023-05-18T00:39:41;18.23;;;5.23;;
19998;SDS011;10160;50.926;4.374;2023-05-18T00:42:06;16.80;;;5.13;;
19998;SDS011;10160;50.926;4.374;2023-05-18T00:44:32;15.20;;;4.37;;
19998;SDS011;10160;50.926;4.374;2023-05-18T00:46:58;16.80;;;4.53;;
19998;SDS011;10160;50.926;4.374;2023-05-18T00:49:24;13.03;;;4.83;;
19998;SDS011;10160;50.926;4.374;2023-05-18T00:51:50;20.67;;;5.30;;
19998;SDS011;10160;50.926;4.374;2023-05-18T00:54:17;15.70;;;4.70;;
19998;SDS011;10160;50.926;4.374;2023-05-18T00:56:44;12.23;;;4.47;;
19998;SDS011;10160;50.926;4.374;2023-05-18T00:59:12;13.37;;;5.53;;
19998;SDS011;10160;50.926;4.374;2023-05-18T01:01:38;16.23;;;4.50;;
19998;SDS011;10160;50.926;4.374;2023-05-18T01:04:07;15.30;;;4.60;;
19998;SDS011;10160;50.926;4.374;2023-05-18T01:06:34;17.43;;;4.57;;
19998;SDS011;10160;50.926;4.374;2023-05-18T01:09:02;13.97;;;4.47;;
19998;SDS011;10160;50.926;4.374;2023-05-18T01:11:46;12.87;;;4.67;;
19998;SDS011;10160;50.926;4.374;2023-05-18T01:14:19;14.60;;;4.70;;
19998;SDS011;10160;50.926;4.374;2023-05-18T01:17:04;15.87;;;4.90;;
19998;SDS011;10160;50.926;4.374;2023-05-18T01:19:42;14.27;;;4.30;;
19998;SDS011;10160;50.926;4.374;2023-05-18T01:25:33;14.87;;;4.10;;
19998;SDS011;10160;50.926;4.374;2023-05-18T01:28:00;18.20;;;5.10;;
19998;SDS011;10160;50.926;4.374;2023-05-18T01:30:32;13.70;;;4.60;;
19998;SDS011;10160;50.926;4.374;2023-05-18T01:33:00;13.67;;;4.93;;
19998;SDS011;10160;50.926;4.374;2023-05-18T01:35:30;14.40;;;4.17;;
19998;SDS011;10160;50.926;4.374;2023-05-18T01:37:55;14.53;;;4.87;;
19998;SDS011;10160;50.926;4.374;2023-05-18T01:40:21;14.13;;;5.53;;
19998;SDS011;10160;50.926;4.374;2023-05-18T01:42:50;16.57;;;4.93;;
19998;SDS011;10160;50.926;4.374;2023-05-18T01:45:21;15.13;;;5.13;;
19998;SDS011;10160;50.926;4.374;2023-05-18T01:47:49;13.50;;;4.77;;
19998;SDS011;10160;50.926;4.374;2023-05-18T01:50:20;11.50;;;4.40;;
19998;SDS011;10160;50.926;4.374;2023-05-18T01:52:59;16.83;;;4.57;;
19998;SDS011;10160;50.926;4.374;2023-05-18T01:55:30;11.80;;;4.60;;
19998;SDS011;10160;50.926;4.374;2023-05-18T01:57:57;12.80;;;5.17;;
19998;SDS011;10160;50.926;4.374;2023-05-18T02:00:24;14.87;;;4.93;;
19998;SDS011;10160;50.926;4.374;2023-05-18T02:02:50;14.37;;;5.07;;
19998;SDS011;10160;50.926;4.374;2023-05-18T02:05:16;16.80;;;4.77;;
19998;SDS011;10160;50.926;4.374;2023-05-18T02:07:42;16.33;;;4.77;;
19998;SDS011;10160;50.926;4.374;2023-05-18T02:10:08;12.90;;;5.03;;
19998;SDS011;10160;50.926;4.374;2023-05-18T02:12:34;13.37;;;5.00;;
19998;SDS011;10160;50.926;4.374;2023-05-18T02:15:00;12.13;;;4.03;;
19998;SDS011;10160;50.926;4.374;2023-05-18T02:17:30;15.87;;;4.60;;
19998;SDS011;10160;50.926;4.374;2023-05-18T02:19:57;12.03;;;4.87;;
19998;SDS011;10160;50.926;4.374;2023-05-18T02:22:22;17.50;;;5.03;;
19998;SDS011;10160;50.926;4.374;2023-05-18T02:24:48;17.27;;;4.63;;
19998;SDS011;10160;50.926;4.374;2023-05-18T02:27:14;13.43;;;4.30;;
19998;SDS011;10160;50.926;4.374;2023-05-18T02:29:40;16.53;;;4.67;;
19998;SDS011;10160;50.926;4.374;2023-05-18T02:32:06;15.87;;;5.30;;
19998;SDS011;10160;50.926;4.374;2023-05-18T02:34:32;15.57;;;4.67;;
19998;SDS011;10160;50.926;4.374;2023-05-18T02:36:59;13.13;;;4.77;;
19998;SDS011;10160;50.926;4.374;2023-05-18T02:39:27;15.93;;;5.77;;
19998;SDS011;10160;50.926;4.374;2023-05-18T02:41:54;15.30;;;4.60;;
19998;SDS011;10160;50.926;4.374;2023-05-18T02:44:19;12.57;;;4.87;;
19998;SDS011;10160;50.926;4.374;2023-05-18T02:46:45;11.10;;;4.30;;
19998;SDS011;10160;50.926;4.374;2023-05-18T02:49:11;14.83;;;4.87;;
19998;SDS011;10160;50.926;4.374;2023-05-18T02:51:37;13.40;;;4.70;;
19998;SDS011;10160;50.926;4.374;2023-05-18T02:54:03;13.73;;;5.10;;
19998;SDS011;10160;50.926;4.374;2023-05-18T02:56:28;14.30;;;4.80;;
19998;SDS011;10160;50.926;4.374;2023-05-18T02:58:54;14.40;;;5.03;;
19998;SDS011;10160;50.926;4.374;2023-05-18T03:01:22;13.53;;;4.57;;
19998;SDS011;10160;50.926;4.374;2023-05-18T03:03:52;15.00;;;5.57;;
19998;SDS011;10160;50.926;4.374;2023-05-18T03:06:18;17.93;;;4.93;;
19998;SDS011;10160;50.926;4.374;2023-05-18T03:08:50;15.93;;;6.13;;
19998;SDS011;10160;50.926;4.374;2023-05-18T03:11:20;13.93;;;4.77;;
19998;SDS011;10160;50.926;4.374;2023-05-18T03:13:46;12.93;;;4.43;;
19998;SDS011;10160;50.926;4.374;2023-05-18T03:16:12;19.60;;;5.33;;
19998;SDS011;10160;50.926;4.374;2023-05-18T03:18:39;12.10;;;4.93;;
19998;SDS011;10160;50.926;4.374;2023-05-18T03:21:05;13.00;;;5.13;;
19998;SDS011;10160;50.926;4.374;2023-05-18T03:23:32;12.63;;;4.80;;
19998;SDS011;10160;50.926;4.374;2023-05-18T03:25:58;13.87;;;4.47;;
19998;SDS011;10160;50.926;4.374;2023-05-18T03:28:28;15.87;;;4.27;;
19998;SDS011;10160;50.926;4.374;2023-05-18T03:30:54;12.50;;;5.03;;
19998;SDS011;10160;50.926;4.374;2023-05-18T03:33:19;19.93;;;5.03;;
19998;SDS011;10160;50.926;4.374;2023-05-18T03:35:45;13.77;;;4.90;;
19998;SDS011;10160;50.926;4.374;2023-05-18T03:38:11;12.37;;;4.97;;
19998;SDS011;10160;50.926;4.374;2023-05-18T03:40:37;14.43;;;5.07;;
19998;SDS011;10160;50.926;4.374;2023-05-18T03:43:02;18.20;;;5.40;;
19998;SDS011;10160;50.926;4.374;2023-05-18T03:45:28;11.50;;;5.07;;
19998;SDS011;10160;50.926;4.374;2023-05-18T03:47:54;14.20;;;4.70;;
19998;SDS011;10160;50.926;4.374;2023-05-18T03:50:19;12.30;;;4.70;;
19998;SDS011;10160;50.926;4.374;2023-05-18T03:52:45;9.60;;;4.97;;
19998;SDS011;10160;50.926;4.374;2023-05-18T03:55:11;11.63;;;4.73;;
19998;SDS011;10160;50.926;4.374;2023-05-18T03:57:37;14.10;;;5.60;;
19998;SDS011;10160;50.926;4.374;2023-05-18T04:00:03;12.27;;;5.93;;
19998;SDS011;10160;50.926;4.374;2023-05-18T04:02:36;16.90;;;5.17;;
19998;SDS011;10160;50.926;4.374;2023-05-18T04:05:02;12.67;;;4.90;;
19998;SDS011;10160;50.926;4.374;2023-05-18T04:07:29;14.40;;;5.03;;
19998;SDS011;10160;50.926;4.374;2023-05-18T04:09:55;21.53;;;5.57;;
19998;SDS011;10160;50.926;4.374;2023-05-18T04:12:20;12.90;;;5.30;;
19998;SDS011;10160;50.926;4.374;2023-05-18T04:14:46;13.13;;;4.83;;
19998;SDS011;10160;50.926;4.374;2023-05-18T04:17:16;12.27;;;4.73;;
19998;SDS011;10160;50.926;4.374;2023-05-18T04:19:46;15.90;;;5.30;;
19998;SDS011;10160;50.926;4.374;2023-05-18T04:22:15;15.70;;;5.47;;
19998;SDS011;10160;50.926;4.374;2023-05-18T04:24:41;15.63;;;4.83;;
19998;SDS011;10160;50.926;4.374;2023-05-18T04:27:09;12.57;;;5.40;;
19998;SDS011;10160;50.926;4.374;2023-05-18T04:29:36;21.67;;;6.83;;
19998;SDS011;10160;50.926;4.374;2023-05-18T04:32:03;17.60;;;5.20;;
19998;SDS011;10160;50.926;4.374;2023-05-18T04:34:32;11.93;;;5.03;;
19998;SDS011;10160;50.926;4.374;2023-05-18T04:37:02;12.63;;;5.07;;
19998;SDS011;10160;50.926;4.374;2023-05-18T04:39:33;13.83;;;5.20;;
19998;SDS011;10160;50.926;4.374;2023-05-18T04:42:03;17.87;;;5.00;;
19998;SDS011;10160;50.926;4.374;2023-05-18T04:44:29;19.03;;;5.43;;
19998;SDS011;10160;50.926;4.374;2023-05-18T04:46:58;15.17;;;5.93;;
19998;SDS011;10160;50.926;4.374;2023-05-18T04:49:24;14.23;;;5.60;;
19998;SDS011;10160;50.926;4.374;2023-05-18T04:51:52;13.77;;;5.10;;
19998;SDS011;10160;50.926;4.374;2023-05-18T04:54:26;11.30;;;5.37;;
19998;SDS011;10160;50.926;4.374;2023-05-18T04:56:56;19.60;;;5.43;;
19998;SDS011;10160;50.926;4.374;2023-05-18T04:59:23;12.77;;;5.27;;
19998;SDS011;10160;50.926;4.374;2023-05-18T05:01:53;17.80;;;5.43;;
19998;SDS011;10160;50.926;4.374;2023-05-18T05:04:19;12.63;;;5.80;;
19998;SDS011;10160;50.926;4.374;2023-05-18T05:06:46;13.97;;;5.43;;
19998;SDS011;10160;50.926;4.374;2023-05-18T05:09:12;12.33;;;5.90;;
19998;SDS011;10160;50.926;4.374;2023-05-18T05:11:38;17.93;;;5.07;;
19998;SDS011;10160;50.926;4.374;2023-05-18T05:14:04;16.90;;;5.03;;
19998;SDS011;10160;50.926;4.374;2023-05-18T05:16:30;15.47;;;4.83;;
19998;SDS011;10160;50.926;4.374;2023-05-18T05:18:56;14.10;;;5.23;;
19998;SDS011;10160;50.926;4.374;2023-05-18T05:21:21;13.60;;;5.17;;
19998;SDS011;10160;50.926;4.374;2023-05-18T05:23:47;13.30;;;5.37;;
19998;SDS011;10160;50.926;4.374;2023-05-18T05:26:13;15.57;;;6.10;;
19998;SDS011;10160;50.926;4.374;2023-05-18T05:28:38;20.17;;;5.17;;
19998;SDS011;10160;50.926;4.374;2023-05-18T05:31:04;13.43;;;5.30;;
19998;SDS011;10160;50.926;4.374;2023-05-18T05:33:30;15.50;;;5.70;;
19998;SDS011;10160;50.926;4.374;2023-05-18T05:35:56;16.53;;;5.33;;
19998;SDS011;10160;50.926;4.374;2023-05-18T05:38:22;17.33;;;6.10;;
19998;SDS011;10160;50.926;4.374;2023-05-18T05:40:48;14.03;;;5.20;;
19998;SDS011;10160;50.926;4.374;2023-05-18T05:43:13;15.73;;;5.33;;
19998;SDS011;10160;50.926;4.374;2023-05-18T05:45:39;17.67;;;5.43;;
19998;SDS011;10160;50.926;4.374;2023-05-18T05:48:07;17.33;;;6.23;;
19998;SDS011;10160;50.926;4.374;2023-05-18T05:50:33;16.43;;;5.93;;
19998;SDS011;10160;50.926;4.374;2023-05-18T05:52:59;17.17;;;5.80;;
19998;SDS011;10160;50.926;4.374;2023-05-18T05:55:25;16.93;;;5.77;;
19998;SDS011;10160;50.926;4.374;2023-05-18T05:57:51;14.63;;;5.90;;
19998;SDS011;10160;50.926;4.374;2023-05-18T06:00:17;14.43;;;5.20;;
19998;SDS011;10160;50.926;4.374;2023-05-18T06:02:42;9.90;;;4.90;;
19998;SDS011;10160;50.926;4.374;2023-05-18T06:05:08;16.67;;;5.13;;
19998;SDS011;10160;50.926;4.374;2023-05-18T06:07:34;17.70;;;5.50;;
19998;SDS011;10160;50.926;4.374;2023-05-18T06:10:00;13.87;;;5.90;;
19998;SDS011;10160;50.926;4.374;2023-05-18T06:12:26;16.27;;;5.53;;
19998;SDS011;10160;50.926;4.374;2023-05-18T06:14:53;13.53;;;5.83;;
19998;SDS011;10160;50.926;4.374;2023-05-18T06:17:24;17.63;;;5.33;;
19998;SDS011;10160;50.926;4.374;2023-05-18T06:19:51;16.23;;;5.83;;
19998;SDS011;10160;50.926;4.374;2023-05-18T06:22:17;18.47;;;6.20;;
19998;SDS011;10160;50.926;4.374;2023-05-18T06:24:43;14.57;;;5.53;;
19998;SDS011;10160;50.926;4.374;2023-05-18T06:27:09;24.17;;;5.67;;
19998;SDS011;10160;50.926;4.374;2023-05-18T06:29:35;17.67;;;5.80;;
19998;SDS011;10160;50.926;4.374;2023-05-18T06:32:01;25.53;;;6.40;;
19998;SDS011;10160;50.926;4.374;2023-05-18T06:34:27;17.93;;;6.33;;
19998;SDS011;10160;50.926;4.374;2023-05-18T06:36:52;13.23;;;5.60;;
19998;SDS011;10160;50.926;4.374;2023-05-18T06:39:18;18.43;;;5.87;;
19998;SDS011;10160;50.926;4.374;2023-05-18T06:41:44;16.07;;;5.50;;
19998;SDS011;10160;50.926;4.374;2023-05-18T06:44:10;13.47;;;5.73;;
19998;SDS011;10160;50.926;4.374;2023-05-18T06:46:36;17.13;;;6.77;;
19998;SDS011;10160;50.926;4.374;2023-05-18T06:49:03;16.50;;;5.77;;
19998;SDS011;10160;50.926;4.374;2023-05-18T06:51:29;14.70;;;5.67;;
19998;SDS011;10160;50.926;4.374;2023-05-18T06:53:55;15.53;;;5.37;;
19998;SDS011;10160;50.926;4.374;2023-05-18T06:56:21;15.90;;;6.40;;
19998;SDS011;10160;50.926;4.374;2023-05-18T06:58:47;13.77;;;5.97;;
19998;SDS011;10160;50.926;4.374;2023-05-18T07:01:13;14.20;;;5.73;;
19998;SDS011;10160;50.926;4.374;2023-05-18T07:03:41;18.87;;;5.90;;
19998;SDS011;10160;50.926;4.374;2023-05-18T07:06:07;14.57;;;6.63;;
19998;SDS011;10160;50.926;4.374;2023-05-18T07:08:33;15.50;;;7.07;;
19998;SDS011;10160;50.926;4.374;2023-05-18T07:11:01;19.90;;;6.70;;
19998;SDS011;10160;50.926;4.374;2023-05-18T07:13:27;12.90;;;6.30;;
19998;SDS011;10160;50.926;4.374;2023-05-18T07:15:53;20.27;;;6.77;;
19998;SDS011;10160;50.926;4.374;2023-05-18T07:18:18;18.47;;;6.97;;
19998;SDS011;10160;50.926;4.374;2023-05-18T07:20:44;16.33;;;6.57;;
19998;SDS011;10160;50.926;4.374;2023-05-18T07:23:10;21.73;;;7.83;;
19998;SDS011;10160;50.926;4.374;2023-05-18T07:25:35;15.20;;;6.63;;
19998;SDS011;10160;50.926;4.374;2023-05-18T07:28:01;17.70;;;6.50;;
19998;SDS011;10160;50.926;4.374;2023-05-18T07:30:27;15.43;;;6.30;;
19998;SDS011;10160;50.926;4.374;2023-05-18T07:32:53;16.27;;;7.37;;
19998;SDS011;10160;50.926;4.374;2023-05-18T07:35:20;16.67;;;6.97;;
19998;SDS011;10160;50.926;4.374;2023-05-18T07:37:46;15.60;;;6.80;;
19998;SDS011;10160;50.926;4.374;2023-05-18T07:40:13;18.20;;;6.60;;
19998;SDS011;10160;50.926;4.374;2023-05-18T07:42:39;18.47;;;7.20;;
19998;SDS011;10160;50.926;4.374;2023-05-18T07:45:05;17.90;;;6.70;;
19998;SDS011;10160;50.926;4.374;2023-05-18T07:47:31;18.73;;;6.67;;
19998;SDS011;10160;50.926;4.374;2023-05-18T07:49:57;17.90;;;7.10;;
19998;SDS011;10160;50.926;4.374;2023-05-18T07:52:23;15.73;;;5.80;;
19998;SDS011;10160;50.926;4.374;2023-05-18T07:54:49;18.07;;;6.43;;
19998;SDS011;10160;50.926;4.374;2023-05-18T07:57:15;18.70;;;6.80;;
19998;SDS011;10160;50.926;4.374;2023-05-18T07:59:40;13.97;;;6.90;;
19998;SDS011;10160;50.926;4.374;2023-05-18T08:02:06;21.60;;;7.17;;
19998;SDS011;10160;50.926;4.374;2023-05-18T08:04:32;18.00;;;6.57;;
19998;SDS011;10160;50.926;4.374;2023-05-18T08:06:58;14.53;;;6.50;;
19998;SDS011;10160;50.926;4.374;2023-05-18T08:09:27;13.50;;;6.27;;
19998;SDS011;10160;50.926;4.374;2023-05-18T08:11:53;21.17;;;7.50;;
19998;SDS011;10160;50.926;4.374;2023-05-18T08:14:19;16.23;;;7.47;;
19998;SDS011;10160;50.926;4.374;2023-05-18T08:16:45;21.87;;;6.47;;
19998;SDS011;10160;50.926;4.374;2023-05-18T08:19:11;16.50;;;6.10;;
19998;SDS011;10160;50.926;4.374;2023-05-18T08:21:37;17.07;;;7.23;;
19998;SDS011;10160;50.926;4.374;2023-05-18T08:24:02;18.90;;;7.13;;
19998;SDS011;10160;50.926;4.374;2023-05-18T08:26:28;23.03;;;7.00;;
19998;SDS011;10160;50.926;4.374;2023-05-18T08:28:54;16.13;;;6.53;;
19998;SDS011;10160;50.926;4.374;2023-05-18T08:31:20;19.27;;;6.83;;
19998;SDS011;10160;50.926;4.374;2023-05-18T08:33:46;20.33;;;7.23;;
19998;SDS011;10160;50.926;4.374;2023-05-18T08:36:12;21.57;;;6.40;;
19998;SDS011;10160;50.926;4.374;2023-05-18T08:38:38;20.20;;;6.33;;
19998;SDS011;10160;50.926;4.374;2023-05-18T08:41:07;19.63;;;6.43;;
19998;SDS011;10160;50.926;4.374;2023-05-18T08:43:40;17.97;;;7.00;;
19998;SDS011;10160;50.926;4.374;2023-05-18T08:46:12;18.10;;;6.43;;
19998;SDS011;10160;50.926;4.374;2023-05-18T08:48:58;12.77;;;5.83;;
19998;SDS011;10160;50.926;4.374;2023-05-18T08:51:26;17.70;;;6.07;;
19998;SDS011;10160;50.926;4.374;2023-05-18T08:53:53;16.73;;;6.90;;
19998;SDS011;10160;50.926;4.374;2023-05-18T08:56:23;17.47;;;6.33;;
19998;SDS011;10160;50.926;4.374;2023-05-18T08:58:53;16.70;;;6.57;;
19998;SDS011;10160;50.926;4.374;2023-05-18T09:01:20;19.23;;;6.53;;
19998;SDS011;10160;50.926;4.374;2023-05-18T09:03:52;13.47;;;6.43;;
19998;SDS011;10160;50.926;4.374;2023-05-18T09:06:19;16.17;;;6.90;;
19998;SDS011;10160;50.926;4.374;2023-05-18T09:08:48;20.40;;;6.97;;
19998;SDS011;10160;50.926;4.374;2023-05-18T09:11:20;15.50;;;6.77;;
19998;SDS011;10160;50.926;4.374;2023-05-18T09:13:48;16.30;;;5.73;;
19998;SDS011;10160;50.926;4.374;2023-05-18T09:16:15;18.03;;;6.23;;
19998;SDS011;10160;50.926;4.374;2023-05-18T09:18:41;12.77;;;5.73;;
19998;SDS011;10160;50.926;4.374;2023-05-18T09:21:06;17.23;;;5.87;;
19998;SDS011;10160;50.926;4.374;2023-05-18T09:23:32;13.77;;;5.87;;
19998;SDS011;10160;50.926;4.374;2023-05-18T09:25:58;18.43;;;6.60;;
19998;SDS011;10160;50.926;4.374;2023-05-18T09:28:40;13.63;;;6.17;;
19998;SDS011;10160;50.926;4.374;2023-05-18T09:31:07;13.23;;;5.23;;
19998;SDS011;10160;50.926;4.374;2023-05-18T09:33:38;18.53;;;5.80;;
19998;SDS011;10160;50.926;4.374;2023-05-18T09:36:04;14.37;;;5.67;;
19998;SDS011;10160;50.926;4.374;2023-05-18T09:38:35;16.20;;;5.57;;
19998;SDS011;10160;50.926;4.374;2023-05-18T09:41:11;19.20;;;5.60;;
19998;SDS011;10160;50.926;4.374;2023-05-18T09:43:38;11.77;;;4.80;;
19998;SDS011;10160;50.926;4.374;2023-05-18T09:46:06;14.93;;;5.07;;
19998;SDS011;10160;50.926;4.374;2023-05-18T09:48:33;22.90;;;4.97;;
19998;SDS011;10160;50.926;4.374;2023-05-18T09:51:00;17.40;;;5.43;;
19998;SDS011;10160;50.926;4.374;2023-05-18T09:53:26;21.20;;;5.13;;
19998;SDS011;10160;50.926;4.374;2023-05-18T09:55:52;17.67;;;5.88;;
19998;SDS011;10160;50.926;4.374;2023-05-18T09:58:18;18.98;;;5.45;;
19998;SDS011;10160;50.926;4.374;2023-05-18T10:00:46;14.00;;;4.97;;
19998;SDS011;10160;50.926;4.374;2023-05-18T10:03:19;13.20;;;4.82;;
19998;SDS011;10160;50.926;4.374;2023-05-18T10:05:47;13.65;;;4.28;;
19998;SDS011;10160;50.926;4.374;2023-05-18T10:08:13;11.93;;;4.57;;
19998;SDS011;10160;50.926;4.374;2023-05-18T10:10:40;14.07;;;5.22;;
19998;SDS011;10160;50.926;4.374;2023-05-18T10:13:15;13.43;;;4.00;;
19998;SDS011;10160;50.926;4.374;2023-05-18T10:15:47;13.52;;;4.38;;
19998;SDS011;10160;50.926;4.374;2023-05-18T10:18:17;12.77;;;4.03;;
19998;SDS011;10160;50.926;4.374;2023-05-18T10:20:48;20.88;;;4.30;;
19998;SDS011;10160;50.926;4.374;2023-05-18T10:23:16;14.80;;;4.53;;
19998;SDS011;10160;50.926;4.374;2023-05-18T10:25:44;11.00;;;3.80;;
19998;SDS011;10160;50.926;4.374;2023-05-18T10:28:11;11.68;;;4.22;;
19998;SDS011;10160;50.926;4.374;2023-05-18T10:30:52;18.58;;;4.30;;
19998;SDS011;10160;50.926;4.374;2023-05-18T10:33:24;15.60;;;4.68;;
19998;SDS011;10160;50.926;4.374;2023-05-18T10:35:51;9.82;;;4.22;;
19998;SDS011;10160;50.926;4.374;2023-05-18T10:38:24;12.27;;;4.15;;
19998;SDS011;10160;50.926;4.374;2023-05-18T10:40:55;14.32;;;4.97;;
19998;SDS011;10160;50.926;4.374;2023-05-18T10:43:24;10.02;;;3.78;;
19998;SDS011;10160;50.926;4.374;2023-05-18T10:45:55;12.48;;;4.65;;
19998;SDS011;10160;50.926;4.374;2023-05-18T10:48:22;14.20;;;4.22;;
19998;SDS011;10160;50.926;4.374;2023-05-18T10:50:49;10.95;;;4.40;;
19998;SDS011;10160;50.926;4.374;2023-05-18T10:53:17;14.05;;;4.70;;
19998;SDS011;10160;50.926;4.374;2023-05-18T10:55:48;10.77;;;3.95;;
19998;SDS011;10160;50.926;4.374;2023-05-18T10:58:16;16.38;;;4.13;;
19998;SDS011;10160;50.926;4.374;2023-05-18T11:00:45;11.80;;;3.92;;
19998;SDS011;10160;50.926;4.374;2023-05-18T11:03:16;10.23;;;4.20;;
19998;SDS011;10160;50.926;4.374;2023-05-18T11:05:48;10.27;;;4.00;;
19998;SDS011;10160;50.926;4.374;2023-05-18T11:08:24;16.38;;;4.22;;
19998;SDS011;10160;50.926;4.374;2023-05-18T11:10:57;17.08;;;4.47;;
19998;SDS011;10160;50.926;4.374;2023-05-18T11:13:28;14.68;;;4.63;;
19998;SDS011;10160;50.926;4.374;2023-05-18T11:18:42;14.00;;;4.05;;
19998;SDS011;10160;50.926;4.374;2023-05-18T11:26:41;12.63;;;4.35;;
19998;SDS011;10160;50.926;4.374;2023-05-18T11:29:15;18.55;;;4.63;;
19998;SDS011;10160;50.926;4.374;2023-05-18T11:31:45;16.08;;;4.97;;
19998;SDS011;10160;50.926;4.374;2023-05-18T11:37:05;12.98;;;4.82;;
19998;SDS011;10160;50.926;4.374;2023-05-18T11:39:33;15.45;;;4.32;;
19998;SDS011;10160;50.926;4.374;2023-05-18T11:42:00;12.52;;;4.63;;
19998;SDS011;10160;50.926;4.374;2023-05-18T11:44:30;10.75;;;4.50;;
19998;SDS011;10160;50.926;4.374;2023-05-18T11:49:23;16.20;;;5.28;;
19998;SDS011;10160;50.926;4.374;2023-05-18T11:52:07;15.73;;;4.82;;
19998;SDS011;10160;50.926;4.374;2023-05-18T11:54:43;13.30;;;4.68;;
19998;SDS011;10160;50.926;4.374;2023-05-18T11:57:18;13.07;;;4.57;;
19998;SDS011;10160;50.926;4.374;2023-05-18T11:59:51;18.42;;;5.18;;
19998;SDS011;10160;50.926;4.374;2023-05-18T12:02:26;17.73;;;4.93;;
19998;SDS011;10160;50.926;4.374;2023-05-18T12:04:58;15.02;;;4.78;;
19998;SDS011;10160;50.926;4.374;2023-05-18T12:07:25;14.57;;;4.80;;
19998;SDS011;10160;50.926;4.374;2023-05-18T12:10:02;12.50;;;4.55;;
19998;SDS011;10160;50.926;4.374;2023-05-18T12:12:33;16.50;;;4.55;;
19998;SDS011;10160;50.926;4.374;2023-05-18T12:15:00;14.63;;;4.25;;
19998;SDS011;10160;50.926;4.374;2023-05-18T12:17:37;13.43;;;4.70;;
19998;SDS011;10160;50.926;4.374;2023-05-18T12:20:04;16.55;;;5.05;;
19998;SDS011;10160;50.926;4.374;2023-05-18T12:22:42;15.98;;;4.38;;
19998;SDS011;10160;50.926;4.374;2023-05-18T12:25:16;16.20;;;4.40;;
19998;SDS011;10160;50.926;4.374;2023-05-18T12:27:44;15.02;;;4.28;;
19998;SDS011;10160;50.926;4.374;2023-05-18T12:32:49;15.13;;;4.68;;
19998;SDS011;10160;50.926;4.374;2023-05-18T12:35:22;13.70;;;5.15;;
19998;SDS011;10160;50.926;4.374;2023-05-18T12:37:51;9.77;;;4.85;;
19998;SDS011;10160;50.926;4.374;2023-05-18T12:40:22;12.82;;;5.35;;
19998;SDS011;10160;50.926;4.374;2023-05-18T12:42:51;14.40;;;4.40;;
19998;SDS011;10160;50.926;4.374;2023-05-18T12:45:30;12.00;;;4.65;;
19998;SDS011;10160;50.926;4.374;2023-05-18T12:48:06;15.10;;;5.13;;
19998;SDS011;10160;50.926;4.374;2023-05-18T12:50:33;13.05;;;4.25;;
19998;SDS011;10160;50.926;4.374;2023-05-18T12:53:01;14.88;;;4.68;;
19998;SDS011;10160;50.926;4.374;2023-05-18T12:55:26;12.73;;;4.30;;
19998;SDS011;10160;50.926;4.374;2023-05-18T12:57:58;12.98;;;4.25;;
19998;SDS011;10160;50.926;4.374;2023-05-18T13:00:25;14.05;;;4.25;;
19998;SDS011;10160;50.926;4.374;2023-05-18T13:02:51;12.05;;;4.05;;
19998;SDS011;10160;50.926;4.374;2023-05-18T13:05:21;12.85;;;3.92;;
19998;SDS011;10160;50.926;4.374;2023-05-18T13:07:48;10.27;;;3.65;;
19998;SDS011;10160;50.926;4.374;2023-05-18T13:10:15;17.13;;;4.72;;
19998;SDS011;10160;50.926;4.374;2023-05-18T13:15:15;13.25;;;4.95;;
19998;SDS011;10160;50.926;4.374;2023-05-18T13:22:57;14.57;;;4.18;;
19998;SDS011;10160;50.926;4.374;2023-05-18T13:25:24;14.95;;;4.30;;
19998;SDS011;10160;50.926;4.374;2023-05-18T13:27:50;12.95;;;4.20;;
19998;SDS011;10160;50.926;4.374;2023-05-18T13:30:18;14.00;;;4.95;;
19998;SDS011;10160;50.926;4.374;2023-05-18T13:32:45;16.08;;;4.35;;
19998;SDS011;10160;50.926;4.374;2023-05-18T13:35:11;17.27;;;4.55;;
19998;SDS011;10160;50.926;4.374;2023-05-18T13:37:37;16.30;;;4.50;;
19998;SDS011;10160;50.926;4.374;2023-05-18T13:40:03;16.58;;;4.60;;
19998;SDS011;10160;50.926;4.374;2023-05-18T13:42:30;19.77;;;5.13;;
19998;SDS011;10160;50.926;4.374;2023-05-18T13:44:56;16.70;;;4.78;;
19998;SDS011;10160;50.926;4.374;2023-05-18T13:47:22;14.55;;;4.05;;
19998;SDS011;10160;50.926;4.374;2023-05-18T13:49:47;14.15;;;3.88;;
19998;SDS011;10160;50.926;4.374;2023-05-18T13:52:13;11.10;;;4.00;;
19998;SDS011;10160;50.926;4.374;2023-05-18T13:54:39;11.00;;;4.25;;
19998;SDS011;10160;50.926;4.374;2023-05-18T13:57:04;16.40;;;4.45;;
19998;SDS011;10160;50.926;4.374;2023-05-18T13:59:31;10.98;;;3.42;;
19998;SDS011;10160;50.926;4.374;2023-05-18T14:01:58;13.35;;;4.03;;
19998;SDS011;10160;50.926;4.374;2023-05-18T14:04:25;13.40;;;3.70;;
19998;SDS011;10160;50.926;4.374;2023-05-18T14:06:51;11.13;;;3.75;;
19998;SDS011;10160;50.926;4.374;2023-05-18T14:09:18;14.48;;;4.15;;
19998;SDS011;10160;50.926;4.374;2023-05-18T14:11:44;11.88;;;4.30;;
19998;SDS011;10160;50.926;4.374;2023-05-18T14:14:09;15.63;;;4.57;;
19998;SDS011;10160;50.926;4.374;2023-05-18T14:16:35;12.30;;;4.35;;
19998;SDS011;10160;50.926;4.374;2023-05-18T14:19:01;12.68;;;4.93;;
19998;SDS011;10160;50.926;4.374;2023-05-18T14:21:27;12.73;;;4.03;;
19998;SDS011;10160;50.926;4.374;2023-05-18T14:23:52;14.48;;;4.85;;
19998;SDS011;10160;50.926;4.374;2023-05-18T14:26:18;13.82;;;4.55;;
19998;SDS011;10160;50.926;4.374;2023-05-18T14:28:44;14.73;;;4.32;;
19998;SDS011;10160;50.926;4.374;2023-05-18T14:31:10;14.80;;;4.43;;
19998;SDS011;10160;50.926;4.374;2023-05-18T14:33:36;14.07;;;3.97;;
19998;SDS011;10160;50.926;4.374;2023-05-18T14:36:01;17.08;;;4.30;;
19998;SDS011;10160;50.926;4.374;2023-05-18T14:38:27;12.98;;;4.40;;
19998;SDS011;10160;50.926;4.374;2023-05-18T14:40:53;10.63;;;3.92;;
19998;SDS011;10160;50.926;4.374;2023-05-18T14:43:18;13.15;;;3.97;;
19998;SDS011;10160;50.926;4.374;2023-05-18T14:45:44;12.32;;;4.20;;
19998;SDS011;10160;50.926;4.374;2023-05-18T14:48:10;12.68;;;4.10;;
19998;SDS011;10160;50.926;4.374;2023-05-18T14:50:36;13.77;;;4.18;;
19998;SDS011;10160;50.926;4.374;2023-05-18T14:53:02;14.85;;;4.43;;
19998;SDS011;10160;50.926;4.374;2023-05-18T14:55:28;14.00;;;3.30;;
19998;SDS011;10160;50.926;4.374;2023-05-18T14:57:53;9.23;;;3.50;;
19998;SDS011;10160;50.926;4.374;2023-05-18T15:00:19;14.32;;;3.67;;
19998;SDS011;10160;50.926;4.374;2023-05-18T15:02:45;16.80;;;3.55;;
19998;SDS011;10160;50.926;4.374;2023-05-18T15:05:11;11.13;;;3.65;;